Geraldton Airport
YGEL : now visible

Airfield :











YOU CAN JOIN US ON...

 
LOGIN :

Register | Disclaimer

   EN    FR    IT 

 









Legend :    VFR   Marginal VFR   IFR   Intensive IFR   Very Intensive IFR
Visi :
Ceiling :
>= 8 km
>= 3000ft
5 to 8 km
1000 to 3000 ft
1500m to 5 km
500 to 1000 ft
800 to 1500m
200 to 500 ft
< 800m
< 200 ft
Symbols :   Thunderstorms  Fog  Heavy snow  Heavy precipitations  Wind > 20 kt






- Airport Elevation : 121 ft
- IATA code : GET


YGEL - Geraldton

CURRENT METAR :
  • 101300Z AUTO 32001KT 9999 // NCD 24/15 Q1015

EXPIRED METARs :
  • 101230Z AUTO 08004KT 020V130 9999 // NCD 23/15 Q1015 RF00.0/000.0
  • 101200Z AUTO 15009KT 9999 // NCD 25/15 Q1015
  • 101130Z AUTO 16007KT 9999 // NCD 26/17 Q1015 RF00.0/000.0
  • 101100Z AUTO 15009KT 9999 // NCD 26/18 Q1014
  • 101030Z AUTO 16009KT 9999 // NCD 27/17 Q1014 RF00.0/000.0

TAF TAF YGEL
Valid from the 10 at 12:00 until the 11 at 06:00 UTC


101117Z 1012/1106 16007KT CAVOK
FM101700 03010KT CAVOK
FM110400 21012KT CAVOK



MET'MAP, your aeronautical weather chart ! - Copyright ORBIFLY December 2007 - Disclaimer

ORBIFLY MET'MAP TEAM :

Programming & Development : Alexandra Zaïnal
Concept & original design : Baudouin d'Aumeries
Assistance for programming : Marc-Olivier Méhu
Technical & hardware support : Manuel Goepfert

Contact : metmap@orbifly.com




SOURCES & CREDITS :

   NOAA       Earth
Advisory